Cyrus, Minnesota
Current Conditions -  °F | °C
As of 10:13 AM on Sunday 23 Nov 2014 (Local Time) from KMOX Reporting Station
NA  
Wind Chill: 31°   Ceiling: NA
Heat Index: 37°   Visibility: 10mi
Dew Point: 34°   Wind: 8mph
Humidity: 87%   Direction: 310°NW
Pressure: 29.46"   Gusts: NA
Location:  45.61°N, 95.74°W
Report Text: KMOX 231613Z AUTO 31007KT 10SM 03/01 A2946 RMK AO2
Loading
Personal Weather Stations






























Interactive Weather Map New forecast layout! Learn more

10-Day Weather Forecast

Advertisements
Track Severe Weather on mobile